Time;durP1;ratioP1;P1;durP2;ratioP2;P2;SDS_P1;SDS_P2;PMS_P1;PMS_P2;Temp;Humidity;BMP_temperature;BMP_pressure;BME280_temperature;BME280_humidity;BME280_pressure;Samples;Min_cycle;Max_cycle;Signal;HPM_P1;HPM_P2
2023/03/08 00:01:46;;;;;;;8.70;6.55;;;;;;;2.60;74.75;94469.16;4989222;28;25061;-75
2023/03/08 00:04:13;;;;;;;9.15;6.43;;;;;;;2.41;76.13;94473.56;4991513;28;25049;-75
2023/03/08 00:06:41;;;;;;;6.85;6.07;;;;;;;2.57;75.30;94466.75;4982697;28;24793;-74
2023/03/08 00:09:07;;;;;;;8.23;6.63;;;;;;;2.55;75.02;94472.84;4987406;28;24464;-75
2023/03/08 00:11:34;;;;;;;8.53;7.40;;;;;;;2.45;75.60;94462.28;4989695;28;24465;-75
2023/03/08 00:14:02;;;;;;;10.30;7.47;;;;;;;2.38;76.61;94464.34;4990351;28;24797;-76
2023/03/08 00:16:29;;;;;;;9.57;7.32;;;;;;;2.50;75.43;94472.28;4989384;28;25061;-75
2023/03/08 00:18:55;;;;;;;11.95;7.40;;;;;;;2.36;77.00;94481.47;4987599;28;24485;-76
2023/03/08 00:21:22;;;;;;;9.15;7.47;;;;;;;2.24;77.71;94478.72;4989757;28;24448;-75
2023/03/08 00:23:51;;;;;;;10.48;7.35;;;;;;;2.26;77.43;94482.81;4988553;28;24436;-75
2023/03/08 00:26:17;;;;;;;9.82;7.38;;;;;;;2.37;77.26;94487.38;4989885;28;24507;-75
2023/03/08 00:28:45;;;;;;;8.77;7.65;;;;;;;2.20;78.46;94482.34;4990691;28;24456;-75
2023/03/08 00:31:13;;;;;;;9.95;7.00;;;;;;;2.11;78.97;94492.13;4990042;28;24456;-75
2023/03/08 00:33:40;;;;;;;11.02;8.18;;;;;;;2.45;77.70;94489.56;4989155;28;24440;-75
2023/03/08 00:36:09;;;;;;;10.70;7.82;;;;;;;2.27;78.78;94488.78;4988802;28;24434;-74
2023/03/08 00:38:36;;;;;;;13.05;8.18;;;;;;;2.15;79.03;94483.41;4985391;28;25017;-74
2023/03/08 00:41:04;;;;;;;9.35;8.07;;;;;;;2.24;78.73;94471.06;4990161;28;25053;-75
2023/03/08 00:43:31;;;;;;;10.43;8.37;;;;;;;2.30;78.80;94463.91;4990441;28;24816;-74
2023/03/08 00:45:58;;;;;;;12.63;8.50;;;;;;;2.35;78.58;94473.88;4988257;28;24525;-74
2023/03/08 00:48:24;;;;;;;10.45;8.35;;;;;;;2.49;78.09;94471.44;4987146;28;24436;-74
2023/03/08 00:50:51;;;;;;;11.23;8.10;;;;;;;2.27;79.09;94476.03;4987145;28;24463;-74
2023/03/08 00:53:17;;;;;;;9.38;7.82;;;;;;;2.16;79.47;94472.28;4980257;28;24437;-74
2023/03/08 00:55:49;;;;;;;13.93;8.10;;;;;;;2.16;80.06;94474.81;4986501;28;24436;-74
2023/03/08 00:58:17;;;;;;;11.77;8.82;;;;;;;2.02;80.85;94472.13;4988414;28;24437;-74
2023/03/08 01:00:43;;;;;;;11.85;9.18;;;;;;;2.08;80.57;94466.72;4988843;28;24440;-75
2023/03/08 01:03:10;;;;;;;12.55;9.38;;;;;;;2.23;80.08;94469.41;4990357;28;24461;-75
2023/03/08 01:05:39;;;;;;;13.80;9.38;;;;;;;2.09;81.51;94458.16;4988613;28;24437;-75
2023/03/08 01:08:05;;;;;;;13.82;8.80;;;;;;;2.00;82.68;94456.06;4979662;28;24445;-75
2023/03/08 01:10:32;;;;;;;13.05;9.10;;;;;;;1.99;82.28;94441.66;4987507;28;24456;-75
2023/03/08 01:12:58;;;;;;;12.20;9.35;;;;;;;1.84;83.88;94438.13;4990493;28;24441;-75
2023/03/08 01:15:26;;;;;;;12.82;9.63;;;;;;;1.61;85.74;94438.47;4989333;28;24433;-75
2023/03/08 01:17:53;;;;;;;11.43;9.35;;;;;;;1.39;88.10;94424.19;4985877;28;24462;-75
2023/03/08 01:20:19;;;;;;;12.65;9.65;;;;;;;1.39;88.51;94413.97;4984962;28;24444;-75
2023/03/08 01:22:46;;;;;;;14.95;10.07;;;;;;;1.42;88.11;94411.28;4988693;28;24982;-75
2023/03/08 01:25:12;;;;;;;13.77;10.55;;;;;;;1.24;90.25;94398.59;4987424;28;25021;-75
2023/03/08 01:27:39;;;;;;;13.20;10.18;;;;;;;1.25;90.57;94403.63;4989377;28;25016;-75
2023/03/08 01:30:06;;;;;;;16.63;10.82;;;;;;;1.15;91.22;94395.59;4985095;28;24991;-75
2023/03/08 01:32:34;;;;;;;17.77;10.82;;;;;;;1.05;93.40;94385.91;4990102;28;24471;-74
2023/03/08 01:35:03;;;;;;;12.82;10.68;;;;;;;1.01;95.01;94384.41;4985955;28;24859;-74
2023/03/08 01:37:29;;;;;;;16.77;11.25;;;;;;;0.92;95.96;94381.38;4981484;28;24488;-75
2023/03/08 01:39:56;;;;;;;16.60;11.10;;;;;;;0.85;96.64;94381.75;4989559;28;24479;-74
2023/03/08 01:42:23;;;;;;;18.65;11.77;;;;;;;0.91;97.25;94374.66;4987843;28;24509;-75
2023/03/08 01:44:51;;;;;;;17.60;11.38;;;;;;;0.83;98.47;94373.38;4983791;28;24444;-74
2023/03/08 01:47:20;;;;;;;18.92;11.10;;;;;;;0.77;98.53;94371.91;4986348;28;24446;-74
2023/03/08 01:49:48;;;;;;;15.43;11.25;;;;;;;0.77;98.90;94369.38;4980947;28;25010;-75
2023/03/08 01:52:18;;;;;;;22.87;11.10;;;;;;;0.68;99.84;94372.38;4982379;28;24458;-74
2023/03/08 01:54:48;;;;;;;15.32;11.32;;;;;;;0.66;100.00;94369.88;4985568;28;24445;-74
2023/03/08 01:57:17;;;;;;;15.02;11.60;;;;;;;0.65;100.00;94358.03;4993531;28;24800;-74
2023/03/08 01:59:46;;;;;;;15.63;11.05;;;;;;;0.48;100.00;94357.97;4992950;28;24452;-74
2023/03/08 02:02:13;;;;;;;14.35;11.20;;;;;;;0.45;100.00;94369.16;4993251;28;24434;-74
2023/03/08 02:04:40;;;;;;;16.98;11.75;;;;;;;0.63;100.00;94370.03;4993609;28;24437;-74
2023/03/08 02:07:08;;;;;;;19.13;11.70;;;;;;;0.48;100.00;94374.13;4984837;28;24788;-75
2023/03/08 02:09:35;;;;;;;23.17;11.45;;;;;;;0.60;100.00;94375.28;4989143;28;24437;-74
2023/03/08 02:12:07;;;;;;;17.30;11.50;;;;;;;0.58;100.00;94360.94;4987737;28;24452;-74
2023/03/08 02:14:33;;;;;;;14.55;10.95;;;;;;;0.52;100.00;94362.06;4988712;28;24440;-73
2023/03/08 02:17:00;;;;;;;17.73;11.82;;;;;;;0.52;100.00;94356.97;4993043;28;24440;-74
2023/03/08 02:19:33;;;;;;;13.18;11.10;;;;;;;0.55;100.00;94353.44;4989707;28;24443;-75
2023/03/08 02:22:06;;;;;;;18.10;12.13;;;;;;;0.53;100.00;94347.59;4989715;28;24998;-75
2023/03/08 02:24:34;;;;;;;17.83;11.90;;;;;;;0.55;100.00;94348.34;4992741;28;24440;-75
2023/03/08 02:27:06;;;;;;;14.75;11.43;;;;;;;0.68;100.00;94346.88;4992792;28;24433;-74
2023/03/08 02:29:33;;;;;;;15.32;11.50;;;;;;;0.63;100.00;94343.69;4993090;28;24445;-74
2023/03/08 02:31:59;;;;;;;16.38;12.10;;;;;;;0.62;100.00;94330.16;4993100;28;24468;-74
2023/03/08 02:34:26;;;;;;;13.75;11.60;;;;;;;0.65;100.00;94332.56;4992954;28;24437;-74
2023/03/08 02:36:52;;;;;;;13.70;10.82;;;;;;;0.76;100.00;94326.94;4991874;28;24429;-73
2023/03/08 02:39:18;;;;;;;17.88;11.85;;;;;;;0.82;100.00;94320.75;4993574;28;24440;-73
2023/03/08 02:41:46;;;;;;;17.07;11.53;;;;;;;0.68;100.00;94322.22;4984197;28;24489;-73
2023/03/08 02:44:13;;;;;;;17.65;12.15;;;;;;;0.72;100.00;94318.63;4981691;28;25106;-73
2023/03/08 02:46:39;;;;;;;12.85;10.80;;;;;;;0.70;100.00;94319.59;4987815;28;24804;-73
2023/03/08 02:49:06;;;;;;;15.23;10.88;;;;;;;0.85;100.00;94318.03;4988400;28;24460;-73
2023/03/08 02:51:32;;;;;;;15.80;11.55;;;;;;;0.83;100.00;94305.38;4991131;28;24460;-73
2023/03/08 02:53:59;;;;;;;17.27;10.75;;;;;;;0.87;100.00;94309.41;4989987;28;25872;-73
2023/03/08 02:56:25;;;;;;;19.25;11.43;;;;;;;0.99;100.00;94300.34;4987124;28;24436;-73
2023/03/08 02:58:53;;;;;;;15.32;11.38;;;;;;;0.85;100.00;94297.63;4987076;28;24441;-73
2023/03/08 03:01:20;;;;;;;17.23;11.23;;;;;;;0.81;100.00;94294.41;4991747;28;24436;-73
2023/03/08 03:03:46;;;;;;;14.43;10.70;;;;;;;0.82;100.00;94280.78;4989011;28;24440;-73
2023/03/08 03:06:14;;;;;;;14.60;10.48;;;;;;;0.79;100.00;94275.84;4989640;28;24509;-73
2023/03/08 03:08:41;;;;;;;16.27;11.82;;;;;;;0.80;100.00;94274.13;4989600;28;24503;-73
2023/03/08 03:11:11;;;;;;;14.65;10.95;;;;;;;0.89;100.00;94266.00;4991675;28;24460;-74
2023/03/08 03:13:38;;;;;;;14.23;10.93;;;;;;;0.95;100.00;94266.53;4988710;28;25043;-74
2023/03/08 03:16:08;;;;;;;14.15;10.82;;;;;;;0.85;100.00;94257.69;4988000;28;24454;-74
2023/03/08 03:18:34;;;;;;;15.57;10.45;;;;;;;0.79;100.00;94260.56;4986543;28;25014;-74
2023/03/08 03:21:03;;;;;;;15.07;10.70;;;;;;;0.82;100.00;94262.13;4991267;28;24433;-73
2023/03/08 03:23:29;;;;;;;15.73;10.20;;;;;;;0.84;100.00;94256.03;4987708;28;24546;-74
2023/03/08 03:25:56;;;;;;;12.93;10.10;;;;;;;0.90;100.00;94247.28;4989123;28;24440;-73
2023/03/08 03:28:22;;;;;;;15.55;10.38;;;;;;;0.91;99.74;94242.09;4989090;28;24990;-73
2023/03/08 03:30:49;;;;;;;14.40;9.95;;;;;;;0.85;99.45;94232.19;4991675;28;24990;-73
2023/03/08 03:33:17;;;;;;;11.18;9.75;;;;;;;0.87;99.80;94229.59;4985818;28;25017;-76
2023/03/08 03:35:43;;;;;;;11.32;9.70;;;;;;;0.98;99.45;94217.13;4983309;28;24464;-74
2023/03/08 03:38:09;;;;;;;13.88;10.55;;;;;;;0.95;99.35;94223.19;4988312;28;24460;-74
2023/03/08 03:40:36;;;;;;;12.30;10.40;;;;;;;0.86;99.77;94223.66;4992250;28;24441;-73
2023/03/08 03:43:02;;;;;;;14.17;10.13;;;;;;;0.84;99.65;94219.53;4989317;28;24433;-73
2023/03/08 03:45:29;;;;;;;13.48;9.50;;;;;;;0.79;100.00;94222.31;4991335;28;24440;-73
2023/03/08 03:47:55;;;;;;;17.48;10.57;;;;;;;0.71;100.00;94226.97;4985501;28;24439;-73
2023/03/08 03:50:23;;;;;;;14.70;9.95;;;;;;;0.67;100.00;94225.47;4981595;28;24452;-74
2023/03/08 03:52:50;;;;;;;14.82;10.13;;;;;;;0.73;100.00;94215.78;4983142;28;24445;-75
2023/03/08 03:55:16;;;;;;;15.27;10.35;;;;;;;0.79;100.00;94212.13;4988921;28;24437;-73
2023/03/08 03:57:43;;;;;;;14.35;10.20;;;;;;;0.86;100.00;94220.31;4990441;28;24433;-73
2023/03/08 04:00:10;;;;;;;13.63;9.57;;;;;;;0.84;100.00;94214.44;4989818;28;24453;-74
2023/03/08 04:02:37;;;;;;;11.93;9.57;;;;;;;0.91;100.00;94203.03;4988409;28;24967;-73
2023/03/08 04:05:04;;;;;;;15.18;9.90;;;;;;;0.91;99.76;94200.50;4985424;28;24445;-73
2023/03/08 04:07:32;;;;;;;16.67;10.13;;;;;;;0.95;99.30;94204.53;4991383;28;24448;-74
2023/03/08 04:09:59;;;;;;;13.20;9.90;;;;;;;0.96;98.62;94201.06;4989408;28;24824;-74
2023/03/08 04:12:28;;;;;;;17.65;10.30;;;;;;;0.80;100.00;94206.13;4989192;28;24456;-74
2023/03/08 04:14:54;;;;;;;14.70;9.82;;;;;;;0.78;100.00;94207.09;4985618;28;24441;-73
2023/03/08 04:17:20;;;;;;;13.00;9.70;;;;;;;0.93;100.00;94199.53;4983576;28;24433;-73
2023/03/08 04:19:48;;;;;;;14.05;10.88;;;;;;;0.93;99.52;94188.50;4989912;28;24444;-73
2023/03/08 04:22:14;;;;;;;22.33;13.65;;;;;;;0.83;99.35;94208.53;4991518;28;24437;-73
2023/03/08 04:24:42;;;;;;;18.60;13.63;;;;;;;0.84;99.91;94207.63;4987778;28;24437;-73
2023/03/08 04:27:09;;;;;;;13.68;10.95;;;;;;;0.88;100.00;94210.84;4990588;28;24444;-74
2023/03/08 04:29:35;;;;;;;11.52;9.68;;;;;;;0.88;99.61;94191.28;4987728;28;24448;-73
2023/03/08 04:32:01;;;;;;;13.10;9.57;;;;;;;0.90;100.00;94175.91;4990274;28;24510;-73
2023/03/08 04:34:28;;;;;;;14.18;9.55;;;;;;;0.93;99.61;94173.22;4987895;28;24449;-74
2023/03/08 04:36:54;;;;;;;15.77;9.63;;;;;;;1.00;99.85;94173.72;4986693;28;25009;-74
2023/03/08 04:39:21;;;;;;;15.18;9.38;;;;;;;0.94;100.00;94159.56;4981410;28;24441;-73
2023/03/08 04:41:49;;;;;;;13.90;9.57;;;;;;;0.96;100.00;94161.16;4988440;28;24432;-74
2023/03/08 04:44:15;;;;;;;11.05;9.27;;;;;;;0.94;100.00;94155.28;4990773;28;24983;-73
2023/03/08 04:46:42;;;;;;;11.35;8.90;;;;;;;1.20;99.21;94148.03;4986703;28;24780;-73
2023/03/08 04:49:08;;;;;;;15.85;9.75;;;;;;;1.11;99.12;94149.34;4982646;28;24452;-74
2023/03/08 04:51:34;;;;;;;11.93;9.35;;;;;;;1.09;98.92;94147.75;4983653;28;24460;-74
2023/03/08 04:54:03;;;;;;;13.93;9.98;;;;;;;1.01;99.95;94137.97;4983373;28;24449;-73
2023/03/08 04:56:29;;;;;;;11.57;9.40;;;;;;;0.86;100.00;94142.13;4985086;28;24815;-73
2023/03/08 04:58:57;;;;;;;12.88;9.88;;;;;;;0.77;100.00;94146.84;4989040;28;24448;-73
2023/03/08 05:01:23;;;;;;;10.23;8.90;;;;;;;0.71;100.00;94138.63;4983144;28;24437;-73
2023/03/08 05:03:52;;;;;;;12.38;9.00;;;;;;;0.80;100.00;94144.97;4989030;28;24439;-73
2023/03/08 05:06:20;;;;;;;11.30;8.80;;;;;;;0.78;100.00;94138.28;4989493;28;24519;-73
2023/03/08 05:08:47;;;;;;;13.02;9.35;;;;;;;0.76;100.00;94130.72;4983288;28;25012;-73
2023/03/08 05:11:18;;;;;;;13.95;9.10;;;;;;;0.72;100.00;94134.34;4988730;28;24441;-73
2023/03/08 05:13:45;;;;;;;12.18;9.13;;;;;;;0.79;100.00;94130.59;4986284;28;24499;-74
2023/03/08 05:16:13;;;;;;;10.77;9.00;;;;;;;0.77;100.00;94117.09;4982792;28;24440;-73
2023/03/08 05:18:40;;;;;;;11.68;9.10;;;;;;;0.84;100.00;94113.31;4990032;28;25005;-73
2023/03/08 05:21:08;;;;;;;20.95;11.77;;;;;;;0.83;100.00;94109.13;4989622;28;24436;-73
2023/03/08 05:23:34;;;;;;;15.02;9.85;;;;;;;0.96;100.00;94104.22;4987962;28;24436;-73
2023/03/08 05:26:03;;;;;;;13.23;8.60;;;;;;;0.94;100.00;94099.22;4982465;28;24433;-73
2023/03/08 05:28:32;;;;;;;10.77;8.18;;;;;;;1.07;100.00;94099.38;4986908;28;24444;-73
2023/03/08 05:31:02;;;;;;;11.48;8.13;;;;;;;1.09;99.60;94096.75;4989148;28;24440;-73
2023/03/08 05:33:30;;;;;;;15.95;9.40;;;;;;;1.06;99.18;94094.38;4990496;28;24453;-72
2023/03/08 05:35:57;;;;;;;11.65;8.75;;;;;;;1.06;99.91;94100.28;4980385;28;24452;-74
2023/03/08 05:38:24;;;;;;;14.70;9.50;;;;;;;1.11;97.80;94080.50;4986171;28;24445;-74
2023/03/08 05:40:50;;;;;;;10.85;8.48;;;;;;;1.21;97.61;94085.91;4980795;28;24448;-74
2023/03/08 05:43:17;;;;;;;9.38;8.18;;;;;;;1.06;98.42;94089.28;4985536;28;24792;-74
2023/03/08 05:45:44;;;;;;;11.50;8.53;;;;;;;1.10;98.30;94083.09;4982475;28;24516;-72
2023/03/08 05:48:10;;;;;;;10.95;8.57;;;;;;;1.06;98.32;94087.53;4985860;28;24469;-71
2023/03/08 05:50:38;;;;;;;12.38;8.73;;;;;;;1.03;98.43;94082.59;4987786;28;24440;-72
2023/03/08 05:53:05;;;;;;;10.98;8.52;;;;;;;1.09;99.01;94081.47;4988463;28;24457;-72
2023/03/08 05:55:31;;;;;;;12.77;8.63;;;;;;;1.19;97.70;94075.81;4988295;28;24429;-73
2023/03/08 05:57:57;;;;;;;9.73;7.90;;;;;;;1.20;97.18;94086.81;4983214;28;24437;-72
2023/03/08 06:00:25;;;;;;;9.57;8.30;;;;;;;1.15;98.34;94084.53;4985826;28;24444;-72
2023/03/08 06:02:51;;;;;;;10.67;8.40;;;;;;;1.18;97.74;94080.97;4984517;28;24433;-72
2023/03/08 06:05:18;;;;;;;11.43;8.63;;;;;;;1.26;97.70;94075.44;4988201;28;24440;-72
2023/03/08 06:07:46;;;;;;;11.35;8.50;;;;;;;1.18;97.87;94071.59;4988731;28;24436;-72
2023/03/08 06:10:12;;;;;;;11.82;8.40;;;;;;;1.36;97.04;94058.75;4982290;28;24445;-73
2023/03/08 06:12:39;;;;;;;12.82;8.70;;;;;;;1.26;97.88;94060.16;4988625;28;24994;-73
2023/03/08 06:15:06;;;;;;;9.77;8.70;;;;;;;1.24;97.97;94062.78;4989272;28;24807;-72
2023/03/08 06:17:33;;;;;;;12.95;8.70;;;;;;;1.30;97.47;94056.53;4988610;28;24463;-72
2023/03/08 06:19:59;;;;;;;11.52;9.02;;;;;;;1.27;98.42;94051.63;4986664;28;24448;-72
2023/03/08 06:22:26;;;;;;;12.88;9.02;;;;;;;1.33;97.62;94054.63;4982423;28;24436;-72
2023/03/08 06:24:53;;;;;;;11.35;8.50;;;;;;;1.36;98.72;94046.00;4987381;28;24816;-71
2023/03/08 06:27:20;;;;;;;12.60;9.07;;;;;;;1.37;99.65;94039.97;4987445;28;24808;-74
2023/03/08 06:29:47;;;;;;;14.00;9.73;;;;;;;1.41;99.82;94044.03;4982643;28;24455;-77
2023/03/08 06:32:14;;;;;;;10.57;8.38;;;;;;;1.51;100.00;94034.94;4982913;28;24460;-72
2023/03/08 06:34:41;;;;;;;11.57;8.50;;;;;;;1.46;100.00;94039.50;4985952;28;25021;-73
2023/03/08 06:37:07;;;;;;;9.40;8.25;;;;;;;1.51;100.00;94032.41;4984685;28;24445;-73
2023/03/08 06:39:34;;;;;;;14.20;9.35;;;;;;;1.45;100.00;94022.56;4987294;28;24444;-73
2023/03/08 06:42:02;;;;;;;11.85;8.80;;;;;;;1.47;100.00;94035.22;4987679;28;24441;-73
2023/03/08 06:44:29;;;;;;;12.15;7.70;;;;;;;1.52;100.00;94034.06;4983242;28;24445;-73
2023/03/08 06:46:56;;;;;;;13.52;8.02;;;;;;;1.50;100.00;94028.22;4989757;28;24959;-73
2023/03/08 06:49:22;;;;;;;11.07;8.32;;;;;;;1.51;100.00;94029.84;4987357;28;24444;-73
2023/03/08 06:51:49;;;;;;;12.00;8.35;;;;;;;1.63;100.00;94024.09;4993429;28;24463;-73
2023/03/08 06:54:16;;;;;;;11.53;8.57;;;;;;;1.67;100.00;94023.00;4989726;28;24449;-74
2023/03/08 06:56:43;;;;;;;10.70;8.65;;;;;;;1.57;100.00;94032.06;4988244;28;24444;-73
2023/03/08 06:59:11;;;;;;;9.90;8.10;;;;;;;1.51;100.00;94023.94;4987784;28;24994;-73
2023/03/08 07:01:37;;;;;;;12.03;9.17;;;;;;;1.46;100.00;94016.53;4981812;28;24440;-74
2023/03/08 07:04:04;;;;;;;12.85;9.23;;;;;;;1.44;100.00;94011.50;4992428;28;24429;-73
2023/03/08 07:06:31;;;;;;;10.48;8.20;;;;;;;1.48;100.00;94009.59;4990298;28;24440;-73
2023/03/08 07:08:57;;;;;;;10.32;8.27;;;;;;;1.38;100.00;94001.66;4990577;28;24796;-73
2023/03/08 07:11:25;;;;;;;12.00;8.15;;;;;;;1.35;100.00;93995.91;4991123;28;24440;-73
2023/03/08 07:13:52;;;;;;;13.30;8.55;;;;;;;1.32;100.00;93996.06;4991205;28;24456;-73
2023/03/08 07:16:20;;;;;;;13.25;8.60;;;;;;;1.39;100.00;93992.28;4988207;28;24444;-73
2023/03/08 07:18:46;;;;;;;10.13;8.97;;;;;;;1.42;100.00;93981.91;4988910;28;24497;-73
2023/03/08 07:21:13;;;;;;;9.80;8.32;;;;;;;1.45;100.00;93982.56;4992503;28;24449;-74
2023/03/08 07:23:39;;;;;;;12.32;9.25;;;;;;;1.45;100.00;93972.34;4991574;28;24433;-73
2023/03/08 07:26:06;;;;;;;12.20;8.50;;;;;;;1.38;100.00;93967.69;4981955;28;24444;-74
2023/03/08 07:28:33;;;;;;;11.77;8.17;;;;;;;1.35;100.00;93962.75;4990300;28;24452;-73
2023/03/08 07:30:59;;;;;;;12.07;9.02;;;;;;;1.33;100.00;93967.09;4991550;28;24433;-74
2023/03/08 07:33:27;;;;;;;10.43;8.85;;;;;;;1.47;100.00;93956.94;4992995;28;24451;-73
2023/03/08 07:35:54;;;;;;;12.52;8.35;;;;;;;1.33;100.00;93962.00;4989494;28;24432;-74
2023/03/08 07:38:21;;;;;;;12.13;9.43;;;;;;;1.36;100.00;93954.19;4985883;28;24445;-74
2023/03/08 07:40:54;;;;;;;11.55;9.00;;;;;;;1.29;100.00;93952.88;4986973;28;24978;-74
2023/03/08 07:43:21;;;;;;;10.77;8.43;;;;;;;1.32;100.00;93948.44;4992632;28;24991;-74
2023/03/08 07:45:47;;;;;;;11.80;9.13;;;;;;;1.32;100.00;93945.06;4993141;28;24843;-76
2023/03/08 07:48:14;;;;;;;10.63;8.50;;;;;;;1.32;100.00;93932.31;4988306;28;24437;-77
2023/03/08 07:50:42;;;;;;;11.95;9.45;;;;;;;1.33;100.00;93921.19;4983518;28;25021;-74
2023/03/08 07:53:09;;;;;;;11.82;8.35;;;;;;;1.32;100.00;93922.94;4985083;28;24476;-70
2023/03/08 07:55:36;;;;;;;12.43;8.60;;;;;;;1.38;100.00;93909.03;4987186;28;24832;-74
2023/03/08 07:58:03;;;;;;;13.35;8.57;;;;;;;1.49;100.00;93896.47;4988006;28;24804;-75
2023/03/08 08:00:30;;;;;;;9.38;8.35;;;;;;;1.57;100.00;93883.28;4990694;28;24444;-74
2023/03/08 08:02:56;;;;;;;11.07;8.85;;;;;;;1.60;100.00;93883.09;4989588;28;24440;-74
2023/03/08 08:05:22;;;;;;;9.85;8.00;;;;;;;1.72;100.00;93881.56;4987252;28;24444;-75
2023/03/08 08:07:50;;;;;;;9.93;8.90;;;;;;;1.77;100.00;93882.91;4992227;28;24440;-73
2023/03/08 08:10:17;;;;;;;16.65;9.20;;;;;;;1.83;100.00;93880.00;4991290;28;24437;-73
2023/03/08 08:12:43;;;;;;;14.43;8.52;;;;;;;1.75;100.00;93884.75;4991065;28;24544;-74
2023/03/08 08:15:11;;;;;;;11.88;8.65;;;;;;;1.65;100.00;93876.00;4989597;28;24918;-77
2023/03/08 08:17:37;;;;;;;12.02;8.40;;;;;;;1.69;100.00;93873.16;4988672;28;24441;-74
2023/03/08 08:20:06;;;;;;;11.02;8.15;;;;;;;1.79;100.00;93864.97;4984249;28;24448;-75
2023/03/08 08:22:35;;;;;;;10.65;8.48;;;;;;;1.77;100.00;93857.38;4983166;28;25090;-74
2023/03/08 08:25:03;;;;;;;12.38;8.45;;;;;;;1.70;100.00;93851.00;4988130;28;24433;-73
2023/03/08 08:27:30;;;;;;;10.63;8.48;;;;;;;1.77;100.00;93848.91;4986896;28;24433;-81
2023/03/08 08:29:57;;;;;;;11.43;8.43;;;;;;;1.82;100.00;93847.75;4990317;28;24443;-81
2023/03/08 08:32:24;;;;;;;11.52;8.48;;;;;;;1.91;100.00;93844.63;4996022;28;25033;-81
2023/03/08 08:34:51;;;;;;;10.63;8.55;;;;;;;1.86;100.00;93835.63;4992840;28;24449;-80
2023/03/08 08:37:17;;;;;;;12.80;7.93;;;;;;;1.91;100.00;93831.88;4992475;28;24449;-81
2023/03/08 08:39:44;;;;;;;10.05;7.85;;;;;;;1.93;100.00;93836.91;4998509;28;25027;-80
2023/03/08 08:42:11;;;;;;;10.82;8.02;;;;;;;1.95;100.00;93829.97;4993016;28;24447;-76
2023/03/08 08:44:38;;;;;;;10.93;8.07;;;;;;;1.98;100.00;93837.44;4989385;28;24444;-76
2023/03/08 08:47:04;;;;;;;9.85;8.38;;;;;;;2.04;100.00;93831.13;4989310;28;24443;-76
2023/03/08 08:49:31;;;;;;;10.90;8.43;;;;;;;2.15;100.00;93828.72;4985358;28;24448;-76
2023/03/08 08:51:57;;;;;;;10.20;8.18;;;;;;;2.23;100.00;93818.91;4984040;28;24440;-75
2023/03/08 08:54:24;;;;;;;12.45;9.13;;;;;;;2.33;100.00;93816.56;4987589;28;24456;-76
2023/03/08 08:56:50;;;;;;;13.73;10.55;;;;;;;2.25;100.00;93808.56;4987799;28;24482;-75
2023/03/08 08:59:18;;;;;;;11.85;9.52;;;;;;;2.27;100.00;93811.88;4991474;28;24441;-76
2023/03/08 09:01:45;;;;;;;14.82;10.50;;;;;;;2.24;100.00;93810.31;4988913;28;24448;-77
2023/03/08 09:04:13;;;;;;;12.68;10.50;;;;;;;2.31;100.00;93808.19;4980298;28;24438;-77
2023/03/08 09:06:40;;;;;;;12.75;10.98;;;;;;;2.30;100.00;93801.44;4987650;28;24816;-76
2023/03/08 09:09:07;;;;;;;28.77;17.30;;;;;;;2.24;100.00;93814.59;4989550;28;24528;-77
2023/03/08 09:11:34;;;;;;;15.02;12.00;;;;;;;2.30;100.00;93801.44;4990707;28;24437;-77
2023/03/08 09:14:01;;;;;;;15.95;12.05;;;;;;;2.37;100.00;93802.69;4986637;28;24458;-77
2023/03/08 09:16:31;;;;;;;17.08;12.48;;;;;;;2.39;100.00;93790.66;4991495;28;24441;-76
2023/03/08 09:18:59;;;;;;;17.77;12.30;;;;;;;2.42;100.00;93795.59;4988838;28;24807;-76
2023/03/08 09:21:26;;;;;;;15.02;11.68;;;;;;;2.40;100.00;93792.28;4989331;28;24437;-76
2023/03/08 09:23:53;;;;;;;14.95;12.55;;;;;;;2.50;100.00;93788.25;4985653;28;24476;-75
2023/03/08 09:26:20;;;;;;;15.02;12.23;;;;;;;2.43;100.00;93782.69;4989509;28;24433;-77
2023/03/08 09:28:47;;;;;;;16.10;11.88;;;;;;;2.34;100.00;93782.47;4983798;28;24449;-75
2023/03/08 09:31:16;;;;;;;17.88;13.02;;;;;;;2.36;100.00;93770.41;4987873;28;24444;-74
2023/03/08 09:33:45;;;;;;;15.10;12.50;;;;;;;2.41;100.00;93771.78;4989286;28;24445;-73
2023/03/08 09:36:12;;;;;;;17.30;12.37;;;;;;;2.50;100.00;93762.69;4988027;28;24539;-74
2023/03/08 09:38:39;;;;;;;20.00;12.88;;;;;;;2.49;100.00;93770.47;4989915;28;24464;-74
2023/03/08 09:41:25;;;;;;;17.30;12.18;;;;;;;2.70;100.00;93763.16;4983313;28;24433;-74
2023/03/08 09:44:04;;;;;;;14.45;12.07;;;;;;;2.75;100.00;93774.75;4990261;28;24583;-74
2023/03/08 09:46:35;;;;;;;14.63;11.55;;;;;;;2.82;100.00;93762.38;4987848;28;24491;-74
2023/03/08 09:49:07;;;;;;;22.53;12.87;;;;;;;2.87;100.00;93757.78;4982393;28;24452;-74
2023/03/08 09:51:38;;;;;;;16.05;12.07;;;;;;;3.04;100.00;93757.50;4985037;28;24440;-73
2023/03/08 09:54:08;;;;;;;15.27;11.02;;;;;;;3.06;100.00;93754.84;4986053;28;24456;-74
2023/03/08 09:56:39;;;;;;;16.27;11.20;;;;;;;3.12;100.00;93749.34;4989619;28;24445;-74
2023/03/08 09:59:11;;;;;;;13.60;10.45;;;;;;;3.19;100.00;93750.56;4989847;28;24440;-74
2023/03/08 10:01:44;;;;;;;12.80;10.07;;;;;;;3.25;100.00;93747.59;4988806;28;24432;-74
2023/03/08 10:04:35;;;;;;;14.13;9.68;;;;;;;3.34;100.00;93752.09;4989363;28;24451;-74
2023/03/08 10:07:29;;;;;;;10.07;8.73;;;;;;;3.45;100.00;93750.53;4988634;28;24528;-74
2023/03/08 10:10:12;;;;;;;8.85;7.88;;;;;;;3.53;100.00;93740.63;4979717;28;24460;-74
2023/03/08 10:12:49;;;;;;;11.93;8.55;;;;;;;3.56;100.00;93732.72;4990042;28;24444;-73
2023/03/08 10:15:19;;;;;;;8.20;7.00;;;;;;;3.67;100.00;93739.66;4988855;28;24911;-74
2023/03/08 10:17:51;;;;;;;9.80;6.78;;;;;;;3.73;100.00;93734.97;4993512;28;24429;-74
2023/03/08 10:20:23;;;;;;;7.00;6.30;;;;;;;3.87;100.00;93732.28;4993820;28;24441;-74
2023/03/08 10:22:56;;;;;;;9.43;6.32;;;;;;;4.07;100.00;93730.06;4993799;28;24893;-74
2023/03/08 10:25:25;;;;;;;5.53;4.82;;;;;;;4.22;100.00;93717.91;4991076;28;24447;-74
2023/03/08 10:27:54;;;;;;;7.25;5.85;;;;;;;4.37;100.00;93716.81;4994107;28;24536;-74
2023/03/08 10:30:23;;;;;;;6.15;4.88;;;;;;;4.59;100.00;93698.97;4992740;28;24459;-74
2023/03/08 10:32:52;;;;;;;4.20;3.30;;;;;;;4.87;100.00;93702.09;4993094;28;24535;-73
2023/03/08 10:35:31;;;;;;;2.70;2.50;;;;;;;5.17;100.00;93696.44;4993231;28;24910;-75
2023/03/08 10:37:57;;;;;;;2.15;1.90;;;;;;;5.46;100.00;93696.81;4993395;28;24902;-73
2023/03/08 10:40:24;;;;;;;2.90;2.10;;;;;;;5.72;100.00;93702.53;4993334;28;25214;-74
2023/03/08 10:42:53;;;;;;;1.95;1.50;;;;;;;5.87;100.00;93699.72;4990798;28;24437;-74
2023/03/08 10:45:22;;;;;;;2.83;1.95;;;;;;;5.92;100.00;93695.03;4993011;28;24440;-73
2023/03/08 10:47:55;;;;;;;1.40;1.30;;;;;;;6.09;100.00;93689.44;4989034;28;24437;-74
2023/03/08 10:50:24;;;;;;;1.50;1.40;;;;;;;6.17;100.00;93688.84;4989441;28;24495;-74
2023/03/08 10:52:51;;;;;;;2.60;1.42;;;;;;;6.28;100.00;93686.22;4991968;28;24436;-73
2023/03/08 10:55:20;;;;;;;1.83;1.27;;;;;;;6.46;100.00;93686.53;4985544;28;24463;-74
2023/03/08 10:57:51;;;;;;;4.40;2.05;;;;;;;6.52;100.00;93673.97;4993223;28;24505;-73
2023/03/08 11:00:29;;;;;;;2.42;1.00;;;;;;;6.66;100.00;93675.44;4991136;28;25009;-74
2023/03/08 11:03:13;;;;;;;3.05;1.80;;;;;;;6.88;100.00;93689.97;4986447;28;24425;-74
2023/03/08 11:05:51;;;;;;;1.88;1.20;;;;;;;6.96;100.00;93704.78;4988271;28;24788;-74
2023/03/08 11:08:20;;;;;;;2.33;0.90;;;;;;;6.79;100.00;93688.97;4988091;28;20787;-74
2023/03/08 11:10:46;;;;;;;1.63;1.08;;;;;;;6.87;100.00;93692.66;4991492;28;24432;-74
2023/03/08 11:13:23;;;;;;;1.92;1.35;;;;;;;6.74;100.00;93701.34;4992866;28;24440;-74
2023/03/08 11:15:58;;;;;;;2.42;1.48;;;;;;;6.70;100.00;93699.97;4991556;28;24464;-74
2023/03/08 11:18:35;;;;;;;2.20;1.40;;;;;;;6.74;100.00;93715.97;4987932;28;24433;-75
2023/03/08 11:21:11;;;;;;;1.42;0.90;;;;;;;6.76;100.00;93716.69;4990856;28;24535;-76
2023/03/08 11:23:43;;;;;;;0.90;0.73;;;;;;;6.80;100.00;93707.78;4992316;28;24440;-76
2023/03/08 11:26:15;;;;;;;1.23;0.97;;;;;;;6.88;100.00;93712.31;4989236;28;24788;-76
2023/03/08 11:29:02;;;;;;;1.67;1.10;;;;;;;7.10;100.00;93716.53;4989105;28;20780;-76
2023/03/08 11:31:35;;;;;;;1.13;0.77;;;;;;;7.15;100.00;93717.75;4986386;28;21062;-75